sensor_id;sensor_type;location;lat;lon;timestamp;temperature;humidity
18163;DHT22;9206;50.994;4.538;2023-05-24T00:00:48;8.10;99.90
18163;DHT22;9206;50.994;4.538;2023-05-24T00:03:53;8.10;99.90
18163;DHT22;9206;50.994;4.538;2023-05-24T00:06:49;8.10;99.90
18163;DHT22;9206;50.994;4.538;2023-05-24T00:09:45;8.00;99.90
18163;DHT22;9206;50.994;4.538;2023-05-24T00:12:40;8.00;99.90
18163;DHT22;9206;50.994;4.538;2023-05-24T00:15:28;8.00;99.90
18163;DHT22;9206;50.994;4.538;2023-05-24T00:18:16;8.00;99.90
18163;DHT22;9206;50.994;4.538;2023-05-24T00:21:10;8.00;99.90
18163;DHT22;9206;50.994;4.538;2023-05-24T00:24:03;8.00;99.90
18163;DHT22;9206;50.994;4.538;2023-05-24T00:27:05;8.00;99.90
18163;DHT22;9206;50.994;4.538;2023-05-24T00:30:10;7.90;99.90
18163;DHT22;9206;50.994;4.538;2023-05-24T00:33:04;7.90;99.90
18163;DHT22;9206;50.994;4.538;2023-05-24T00:36:14;7.90;99.90
18163;DHT22;9206;50.994;4.538;2023-05-24T00:39:35;7.80;99.90
18163;DHT22;9206;50.994;4.538;2023-05-24T00:42:23;7.80;99.90
18163;DHT22;9206;50.994;4.538;2023-05-24T00:45:18;7.80;99.90
18163;DHT22;9206;50.994;4.538;2023-05-24T00:48:06;7.70;99.90
18163;DHT22;9206;50.994;4.538;2023-05-24T00:50:59;7.70;99.90
18163;DHT22;9206;50.994;4.538;2023-05-24T00:54:11;7.70;99.90
18163;DHT22;9206;50.994;4.538;2023-05-24T00:57:06;7.60;99.90
18163;DHT22;9206;50.994;4.538;2023-05-24T00:59:54;7.60;99.90
18163;DHT22;9206;50.994;4.538;2023-05-24T01:02:45;7.50;99.90
18163;DHT22;9206;50.994;4.538;2023-05-24T01:05:51;7.50;99.90
18163;DHT22;9206;50.994;4.538;2023-05-24T01:08:49;7.40;99.90
18163;DHT22;9206;50.994;4.538;2023-05-24T01:11:49;7.30;99.90
18163;DHT22;9206;50.994;4.538;2023-05-24T01:14:52;7.30;99.90
18163;DHT22;9206;50.994;4.538;2023-05-24T01:17:52;7.30;99.90
18163;DHT22;9206;50.994;4.538;2023-05-24T01:20:48;7.20;99.90
18163;DHT22;9206;50.994;4.538;2023-05-24T01:23:46;7.20;99.90
18163;DHT22;9206;50.994;4.538;2023-05-24T01:26:44;7.10;99.90
18163;DHT22;9206;50.994;4.538;2023-05-24T01:29:41;7.10;99.90
18163;DHT22;9206;50.994;4.538;2023-05-24T01:32:51;7.10;99.90
18163;DHT22;9206;50.994;4.538;2023-05-24T01:35:44;7.00;99.90
18163;DHT22;9206;50.994;4.538;2023-05-24T01:38:32;7.00;99.90
18163;DHT22;9206;50.994;4.538;2023-05-24T01:41:31;7.00;99.90
18163;DHT22;9206;50.994;4.538;2023-05-24T01:44:26;7.00;99.90
18163;DHT22;9206;50.994;4.538;2023-05-24T01:47:30;6.90;99.90
18163;DHT22;9206;50.994;4.538;2023-05-24T01:50:25;6.90;99.90
18163;DHT22;9206;50.994;4.538;2023-05-24T01:53:18;6.80;99.90
18163;DHT22;9206;50.994;4.538;2023-05-24T01:56:12;6.80;99.90
18163;DHT22;9206;50.994;4.538;2023-05-24T01:59:03;6.70;99.90
18163;DHT22;9206;50.994;4.538;2023-05-24T02:01:52;6.70;99.90
18163;DHT22;9206;50.994;4.538;2023-05-24T02:04:50;6.60;99.90
18163;DHT22;9206;50.994;4.538;2023-05-24T02:07:52;6.60;99.90
18163;DHT22;9206;50.994;4.538;2023-05-24T02:10:41;6.60;99.90
18163;DHT22;9206;50.994;4.538;2023-05-24T02:13:34;6.50;99.90
18163;DHT22;9206;50.994;4.538;2023-05-24T02:16:24;6.50;99.90
18163;DHT22;9206;50.994;4.538;2023-05-24T02:19:18;6.40;99.90
18163;DHT22;9206;50.994;4.538;2023-05-24T02:22:27;6.40;99.90
18163;DHT22;9206;50.994;4.538;2023-05-24T02:25:52;6.30;99.90
18163;DHT22;9206;50.994;4.538;2023-05-24T02:28:42;6.30;99.90
18163;DHT22;9206;50.994;4.538;2023-05-24T02:31:33;6.30;99.90
18163;DHT22;9206;50.994;4.538;2023-05-24T02:34:26;6.30;99.90
18163;DHT22;9206;50.994;4.538;2023-05-24T02:37:17;6.20;99.90
18163;DHT22;9206;50.994;4.538;2023-05-24T02:40:08;6.20;99.90
18163;DHT22;9206;50.994;4.538;2023-05-24T02:42:56;6.20;99.90
18163;DHT22;9206;50.994;4.538;2023-05-24T02:45:49;6.10;99.90
18163;DHT22;9206;50.994;4.538;2023-05-24T02:52:37;6.10;99.90
18163;DHT22;9206;50.994;4.538;2023-05-24T02:55:29;6.00;99.90
18163;DHT22;9206;50.994;4.538;2023-05-24T02:58:38;5.90;99.90
18163;DHT22;9206;50.994;4.538;2023-05-24T03:01:33;5.90;99.90
18163;DHT22;9206;50.994;4.538;2023-05-24T03:04:23;5.80;99.90
18163;DHT22;9206;50.994;4.538;2023-05-24T03:07:22;5.80;99.90
18163;DHT22;9206;50.994;4.538;2023-05-24T03:10:10;5.80;99.90
18163;DHT22;9206;50.994;4.538;2023-05-24T03:13:08;5.80;99.90
18163;DHT22;9206;50.994;4.538;2023-05-24T03:15:56;5.70;99.90
18163;DHT22;9206;50.994;4.538;2023-05-24T03:19:01;5.70;99.90
18163;DHT22;9206;50.994;4.538;2023-05-24T03:21:53;5.70;99.90
18163;DHT22;9206;50.994;4.538;2023-05-24T03:24:43;5.70;99.90
18163;DHT22;9206;50.994;4.538;2023-05-24T03:27:37;5.70;99.90
18163;DHT22;9206;50.994;4.538;2023-05-24T03:30:28;5.70;99.90
18163;DHT22;9206;50.994;4.538;2023-05-24T03:33:22;5.60;99.90
18163;DHT22;9206;50.994;4.538;2023-05-24T03:36:09;5.60;99.90
18163;DHT22;9206;50.994;4.538;2023-05-24T03:39:00;5.50;99.90
18163;DHT22;9206;50.994;4.538;2023-05-24T03:41:49;5.50;99.90
18163;DHT22;9206;50.994;4.538;2023-05-24T03:44:37;5.50;99.90
18163;DHT22;9206;50.994;4.538;2023-05-24T03:47:26;5.50;99.90
18163;DHT22;9206;50.994;4.538;2023-05-24T03:50:17;5.50;99.90
18163;DHT22;9206;50.994;4.538;2023-05-24T03:53:20;5.40;99.90
18163;DHT22;9206;50.994;4.538;2023-05-24T03:56:10;5.40;99.90
18163;DHT22;9206;50.994;4.538;2023-05-24T03:59:00;5.50;99.90
18163;DHT22;9206;50.994;4.538;2023-05-24T04:01:49;5.50;99.90
18163;DHT22;9206;50.994;4.538;2023-05-24T04:04:44;5.50;99.90
18163;DHT22;9206;50.994;4.538;2023-05-24T04:07:52;5.60;99.90
18163;DHT22;9206;50.994;4.538;2023-05-24T04:10:43;5.60;99.90
18163;DHT22;9206;50.994;4.538;2023-05-24T04:13:40;5.60;99.90
18163;DHT22;9206;50.994;4.538;2023-05-24T04:16:34;5.60;99.90
18163;DHT22;9206;50.994;4.538;2023-05-24T04:19:31;5.60;99.90
18163;DHT22;9206;50.994;4.538;2023-05-24T04:22:24;5.70;99.90
18163;DHT22;9206;50.994;4.538;2023-05-24T04:25:26;5.80;99.90
18163;DHT22;9206;50.994;4.538;2023-05-24T04:28:16;5.80;99.90
18163;DHT22;9206;50.994;4.538;2023-05-24T04:31:07;5.90;99.90
18163;DHT22;9206;50.994;4.538;2023-05-24T04:34:01;6.00;99.90
18163;DHT22;9206;50.994;4.538;2023-05-24T04:37:07;6.00;99.90
18163;DHT22;9206;50.994;4.538;2023-05-24T04:40:03;6.10;99.90
18163;DHT22;9206;50.994;4.538;2023-05-24T04:42:54;6.20;99.90
18163;DHT22;9206;50.994;4.538;2023-05-24T04:45:44;6.30;99.90
18163;DHT22;9206;50.994;4.538;2023-05-24T04:48:38;6.30;99.90
18163;DHT22;9206;50.994;4.538;2023-05-24T04:51:28;6.40;99.90
18163;DHT22;9206;50.994;4.538;2023-05-24T04:54:31;6.50;99.90
18163;DHT22;9206;50.994;4.538;2023-05-24T04:57:21;6.60;99.90
18163;DHT22;9206;50.994;4.538;2023-05-24T05:00:10;6.80;99.90
18163;DHT22;9206;50.994;4.538;2023-05-24T05:02:58;6.90;99.90
18163;DHT22;9206;50.994;4.538;2023-05-24T05:05:46;7.00;99.90
18163;DHT22;9206;50.994;4.538;2023-05-24T05:08:38;7.10;99.90
18163;DHT22;9206;50.994;4.538;2023-05-24T05:11:29;7.30;99.90
18163;DHT22;9206;50.994;4.538;2023-05-24T05:14:24;7.50;99.90
18163;DHT22;9206;50.994;4.538;2023-05-24T05:17:13;7.70;99.90
18163;DHT22;9206;50.994;4.538;2023-05-24T05:20:07;7.90;99.90
18163;DHT22;9206;50.994;4.538;2023-05-24T05:23:00;8.00;99.90
18163;DHT22;9206;50.994;4.538;2023-05-24T05:25:50;8.20;99.90
18163;DHT22;9206;50.994;4.538;2023-05-24T05:28:37;8.30;99.90
18163;DHT22;9206;50.994;4.538;2023-05-24T05:31:26;8.50;99.90
18163;DHT22;9206;50.994;4.538;2023-05-24T05:34:22;8.60;99.90
18163;DHT22;9206;50.994;4.538;2023-05-24T05:37:10;8.80;99.90
18163;DHT22;9206;50.994;4.538;2023-05-24T05:39:57;9.00;99.90
18163;DHT22;9206;50.994;4.538;2023-05-24T05:42:46;9.20;99.90
18163;DHT22;9206;50.994;4.538;2023-05-24T05:45:38;9.30;99.90
18163;DHT22;9206;50.994;4.538;2023-05-24T05:48:30;9.60;99.90
18163;DHT22;9206;50.994;4.538;2023-05-24T05:51:25;9.80;99.90
18163;DHT22;9206;50.994;4.538;2023-05-24T05:54:13;10.10;99.90
18163;DHT22;9206;50.994;4.538;2023-05-24T05:57:09;10.40;99.90
18163;DHT22;9206;50.994;4.538;2023-05-24T05:59:58;10.90;99.90
18163;DHT22;9206;50.994;4.538;2023-05-24T06:02:48;11.90;99.90
18163;DHT22;9206;50.994;4.538;2023-05-24T06:05:40;13.00;99.90
18163;DHT22;9206;50.994;4.538;2023-05-24T06:08:30;14.30;99.90
18163;DHT22;9206;50.994;4.538;2023-05-24T06:11:20;15.40;99.90
18163;DHT22;9206;50.994;4.538;2023-05-24T06:14:10;16.20;99.90
18163;DHT22;9206;50.994;4.538;2023-05-24T06:17:10;17.20;99.90
18163;DHT22;9206;50.994;4.538;2023-05-24T06:20:00;18.10;99.90
18163;DHT22;9206;50.994;4.538;2023-05-24T06:22:58;18.60;99.90
18163;DHT22;9206;50.994;4.538;2023-05-24T06:25:52;19.10;99.90
18163;DHT22;9206;50.994;4.538;2023-05-24T06:28:39;19.70;99.90
18163;DHT22;9206;50.994;4.538;2023-05-24T06:31:30;20.30;99.90
18163;DHT22;9206;50.994;4.538;2023-05-24T06:34:18;20.40;99.90
18163;DHT22;9206;50.994;4.538;2023-05-24T06:37:23;20.90;99.90
18163;DHT22;9206;50.994;4.538;2023-05-24T06:40:12;20.80;99.90
18163;DHT22;9206;50.994;4.538;2023-05-24T06:43:00;21.00;99.90
18163;DHT22;9206;50.994;4.538;2023-05-24T06:45:58;21.30;99.90
18163;DHT22;9206;50.994;4.538;2023-05-24T06:48:53;21.50;99.90
18163;DHT22;9206;50.994;4.538;2023-05-24T06:51:44;21.50;99.90
18163;DHT22;9206;50.994;4.538;2023-05-24T06:54:32;20.60;99.90
18163;DHT22;9206;50.994;4.538;2023-05-24T07:01:15;19.60;99.90
18163;DHT22;9206;50.994;4.538;2023-05-24T07:04:11;19.30;99.90
18163;DHT22;9206;50.994;4.538;2023-05-24T07:14:50;19.30;99.90
18163;DHT22;9206;50.994;4.538;2023-05-24T07:17:43;18.60;99.90
18163;DHT22;9206;50.994;4.538;2023-05-24T07:21:03;18.30;99.90
18163;DHT22;9206;50.994;4.538;2023-05-24T07:26:57;17.70;99.90
18163;DHT22;9206;50.994;4.538;2023-05-24T07:28:01;17.10;99.90
18163;DHT22;9206;50.994;4.538;2023-05-24T07:38:27;16.00;99.90
18163;DHT22;9206;50.994;4.538;2023-05-24T07:41:24;16.00;99.90
18163;DHT22;9206;50.994;4.538;2023-05-24T07:44:35;16.00;99.90
18163;DHT22;9206;50.994;4.538;2023-05-24T07:47:23;16.20;99.90
18163;DHT22;9206;50.994;4.538;2023-05-24T07:50:11;16.50;99.90
18163;DHT22;9206;50.994;4.538;2023-05-24T08:12:24;19.30;99.90
18163;DHT22;9206;50.994;4.538;2023-05-24T08:15:37;19.60;99.90
18163;DHT22;9206;50.994;4.538;2023-05-24T08:18:58;20.70;99.90
18163;DHT22;9206;50.994;4.538;2023-05-24T08:22:17;21.40;99.90
18163;DHT22;9206;50.994;4.538;2023-05-24T08:25:23;22.20;99.90
18163;DHT22;9206;50.994;4.538;2023-05-24T08:28:34;23.10;99.90
18163;DHT22;9206;50.994;4.538;2023-05-24T08:31:35;23.90;99.90
18163;DHT22;9206;50.994;4.538;2023-05-24T08:34:29;24.40;99.90
18163;DHT22;9206;50.994;4.538;2023-05-24T08:37:16;23.60;99.90
18163;DHT22;9206;50.994;4.538;2023-05-24T08:40:07;22.40;99.90
18163;DHT22;9206;50.994;4.538;2023-05-24T08:42:59;22.00;99.90
18163;DHT22;9206;50.994;4.538;2023-05-24T08:45:52;21.60;99.90
18163;DHT22;9206;50.994;4.538;2023-05-24T08:48:44;21.50;99.90
18163;DHT22;9206;50.994;4.538;2023-05-24T08:58:45;20.80;99.90
18163;DHT22;9206;50.994;4.538;2023-05-24T09:01:56;21.00;99.90
18163;DHT22;9206;50.994;4.538;2023-05-24T09:04:45;21.50;99.90
18163;DHT22;9206;50.994;4.538;2023-05-24T09:17:35;23.80;99.90
18163;DHT22;9206;50.994;4.538;2023-05-24T09:20:37;24.40;99.90
18163;DHT22;9206;50.994;4.538;2023-05-24T09:41:32;22.70;99.90
18163;DHT22;9206;50.994;4.538;2023-05-24T09:44:28;22.40;99.90
18163;DHT22;9206;50.994;4.538;2023-05-24T09:47:44;22.00;99.90
18163;DHT22;9206;50.994;4.538;2023-05-24T09:50:34;21.70;99.90
18163;DHT22;9206;50.994;4.538;2023-05-24T09:53:34;21.70;99.90
18163;DHT22;9206;50.994;4.538;2023-05-24T10:11:03;25.40;99.90
18163;DHT22;9206;50.994;4.538;2023-05-24T10:18:10;26.20;99.90
18163;DHT22;9206;50.994;4.538;2023-05-24T10:24:46;24.90;99.90
18163;DHT22;9206;50.994;4.538;2023-05-24T10:27:57;25.90;99.90
18163;DHT22;9206;50.994;4.538;2023-05-24T10:31:06;26.60;99.90
18163;DHT22;9206;50.994;4.538;2023-05-24T10:34:00;26.90;99.90
18163;DHT22;9206;50.994;4.538;2023-05-24T10:36:49;26.70;99.90
18163;DHT22;9206;50.994;4.538;2023-05-24T10:39:37;26.20;99.90
18163;DHT22;9206;50.994;4.538;2023-05-24T10:42:46;26.40;99.90
18163;DHT22;9206;50.994;4.538;2023-05-24T10:45:40;26.90;99.90
18163;DHT22;9206;50.994;4.538;2023-05-24T10:51:34;27.70;99.90
18163;DHT22;9206;50.994;4.538;2023-05-24T10:54:28;27.80;99.90
18163;DHT22;9206;50.994;4.538;2023-05-24T10:57:21;27.30;99.90
18163;DHT22;9206;50.994;4.538;2023-05-24T11:42:08;21.20;99.90
18163;DHT22;9206;50.994;4.538;2023-05-24T11:56:04;20.40;99.90
18163;DHT22;9206;50.994;4.538;2023-05-24T12:05:33;21.80;99.90
18163;DHT22;9206;50.994;4.538;2023-05-24T12:08:54;22.20;99.90
18163;DHT22;9206;50.994;4.538;2023-05-24T12:12:02;22.50;99.90
18163;DHT22;9206;50.994;4.538;2023-05-24T12:15:17;22.40;99.90
18163;DHT22;9206;50.994;4.538;2023-05-24T12:18:20;22.30;99.90
18163;DHT22;9206;50.994;4.538;2023-05-24T12:24:48;22.70;99.90
18163;DHT22;9206;50.994;4.538;2023-05-24T12:28:02;22.70;99.90
18163;DHT22;9206;50.994;4.538;2023-05-24T12:30:54;22.50;99.90
18163;DHT22;9206;50.994;4.538;2023-05-24T12:41:54;23.30;99.90
18163;DHT22;9206;50.994;4.538;2023-05-24T12:48:28;24.90;99.90
18163;DHT22;9206;50.994;4.538;2023-05-24T12:51:54;24.00;99.90
18163;DHT22;9206;50.994;4.538;2023-05-24T13:12:20;22.40;99.90
18163;DHT22;9206;50.994;4.538;2023-05-24T13:19:06;21.30;99.90
18163;DHT22;9206;50.994;4.538;2023-05-24T13:30:40;20.50;99.90
18163;DHT22;9206;50.994;4.538;2023-05-24T13:37:22;20.50;99.90
18163;DHT22;9206;50.994;4.538;2023-05-24T13:40:11;20.40;99.90
18163;DHT22;9206;50.994;4.538;2023-05-24T14:00:36;20.80;99.90
18163;DHT22;9206;50.994;4.538;2023-05-24T14:07:34;21.00;99.90
18163;DHT22;9206;50.994;4.538;2023-05-24T14:10:41;20.60;99.90
18163;DHT22;9206;50.994;4.538;2023-05-24T14:14:22;20.50;99.90
18163;DHT22;9206;50.994;4.538;2023-05-24T14:21:27;20.50;99.90
18163;DHT22;9206;50.994;4.538;2023-05-24T14:35:17;20.30;99.90
18163;DHT22;9206;50.994;4.538;2023-05-24T14:42:16;20.10;99.90
18163;DHT22;9206;50.994;4.538;2023-05-24T14:46:05;20.10;99.90
18163;DHT22;9206;50.994;4.538;2023-05-24T14:48:56;20.10;99.90
18163;DHT22;9206;50.994;4.538;2023-05-24T14:51:55;20.30;99.90
18163;DHT22;9206;50.994;4.538;2023-05-24T14:55:00;20.40;99.90
18163;DHT22;9206;50.994;4.538;2023-05-24T14:57:49;20.30;99.90
18163;DHT22;9206;50.994;4.538;2023-05-24T15:04:17;20.00;99.90
18163;DHT22;9206;50.994;4.538;2023-05-24T15:07:06;19.90;99.90
18163;DHT22;9206;50.994;4.538;2023-05-24T15:09:58;19.90;99.90
18163;DHT22;9206;50.994;4.538;2023-05-24T15:15:39;20.00;99.90
18163;DHT22;9206;50.994;4.538;2023-05-24T15:26:20;20.00;99.90
18163;DHT22;9206;50.994;4.538;2023-05-24T15:37:02;20.00;99.90
18163;DHT22;9206;50.994;4.538;2023-05-24T15:39:58;20.10;99.90
18163;DHT22;9206;50.994;4.538;2023-05-24T15:53:36;19.90;99.90
18163;DHT22;9206;50.994;4.538;2023-05-24T16:04:04;19.70;99.90
18163;DHT22;9206;50.994;4.538;2023-05-24T16:06:58;19.90;99.90
18163;DHT22;9206;50.994;4.538;2023-05-24T16:09:52;19.90;99.90
18163;DHT22;9206;50.994;4.538;2023-05-24T16:12:50;20.10;99.90
18163;DHT22;9206;50.994;4.538;2023-05-24T16:15:39;20.00;99.90
18163;DHT22;9206;50.994;4.538;2023-05-24T16:21:56;19.90;99.90
18163;DHT22;9206;50.994;4.538;2023-05-24T16:24:45;19.70;99.90
18163;DHT22;9206;50.994;4.538;2023-05-24T16:27:40;19.50;99.90
18163;DHT22;9206;50.994;4.538;2023-05-24T16:32:03;19.30;99.90
18163;DHT22;9206;50.994;4.538;2023-05-24T16:34:22;19.30;99.90
18163;DHT22;9206;50.994;4.538;2023-05-24T16:37:10;18.90;99.90
18163;DHT22;9206;50.994;4.538;2023-05-24T16:39:59;18.90;99.90
18163;DHT22;9206;50.994;4.538;2023-05-24T16:42:54;18.80;99.90
18163;DHT22;9206;50.994;4.538;2023-05-24T16:45:45;18.60;99.90
18163;DHT22;9206;50.994;4.538;2023-05-24T16:48:34;18.60;99.90
18163;DHT22;9206;50.994;4.538;2023-05-24T16:51:22;18.50;99.90
18163;DHT22;9206;50.994;4.538;2023-05-24T16:54:13;18.50;99.90
18163;DHT22;9206;50.994;4.538;2023-05-24T17:00:42;18.70;99.90
18163;DHT22;9206;50.994;4.538;2023-05-24T17:03:33;18.80;99.90
18163;DHT22;9206;50.994;4.538;2023-05-24T17:06:22;18.90;99.90
18163;DHT22;9206;50.994;4.538;2023-05-24T17:09:15;19.00;99.90
18163;DHT22;9206;50.994;4.538;2023-05-24T17:19:11;19.10;99.90
18163;DHT22;9206;50.994;4.538;2023-05-24T17:25:21;19.00;99.90
18163;DHT22;9206;50.994;4.538;2023-05-24T17:28:16;19.10;99.90
18163;DHT22;9206;50.994;4.538;2023-05-24T17:31:14;19.00;99.90
18163;DHT22;9206;50.994;4.538;2023-05-24T17:34:02;19.00;99.90
18163;DHT22;9206;50.994;4.538;2023-05-24T18:49:09;16.30;99.90
18163;DHT22;9206;50.994;4.538;2023-05-24T20:00:25;14.70;99.90
18163;DHT22;9206;50.994;4.538;2023-05-24T20:27:55;13.90;99.90
18163;DHT22;9206;50.994;4.538;2023-05-24T20:32:29;13.80;99.90
18163;DHT22;9206;50.994;4.538;2023-05-24T20:34:44;13.80;99.90
18163;DHT22;9206;50.994;4.538;2023-05-24T20:37:36;13.70;99.90
18163;DHT22;9206;50.994;4.538;2023-05-24T20:40:31;13.70;99.90
18163;DHT22;9206;50.994;4.538;2023-05-24T21:05:53;13.00;99.90
18163;DHT22;9206;50.994;4.538;2023-05-24T21:40:15;12.20;99.90
18163;DHT22;9206;50.994;4.538;2023-05-24T21:43:08;12.10;99.90
18163;DHT22;9206;50.994;4.538;2023-05-24T21:46:35;12.10;99.90
18163;DHT22;9206;50.994;4.538;2023-05-24T22:11:44;11.50;99.90
18163;DHT22;9206;50.994;4.538;2023-05-24T22:14:41;11.40;99.90
18163;DHT22;9206;50.994;4.538;2023-05-24T22:17:45;11.30;99.90
18163;DHT22;9206;50.994;4.538;2023-05-24T22:21:27;11.30;99.90
18163;DHT22;9206;50.994;4.538;2023-05-24T22:27:45;11.10;99.90
18163;DHT22;9206;50.994;4.538;2023-05-24T22:33:50;10.90;99.90
18163;DHT22;9206;50.994;4.538;2023-05-24T22:40:49;10.70;99.90
18163;DHT22;9206;50.994;4.538;2023-05-24T22:49:03;10.60;99.90
18163;DHT22;9206;50.994;4.538;2023-05-24T22:59:11;10.50;99.90
18163;DHT22;9206;50.994;4.538;2023-05-24T23:05:44;10.40;99.90
18163;DHT22;9206;50.994;4.538;2023-05-24T23:08:32;10.40;99.90
18163;DHT22;9206;50.994;4.538;2023-05-24T23:11:27;10.40;99.90
18163;DHT22;9206;50.994;4.538;2023-05-24T23:14:35;10.40;99.90
18163;DHT22;9206;50.994;4.538;2023-05-24T23:17:35;10.40;99.90
18163;DHT22;9206;50.994;4.538;2023-05-24T23:24:21;10.20;99.90
18163;DHT22;9206;50.994;4.538;2023-05-24T23:27:37;10.20;99.90
18163;DHT22;9206;50.994;4.538;2023-05-24T23:30:48;10.20;99.90
18163;DHT22;9206;50.994;4.538;2023-05-24T23:37:15;10.10;99.90
18163;DHT22;9206;50.994;4.538;2023-05-24T23:43:56;10.00;99.90
18163;DHT22;9206;50.994;4.538;2023-05-24T23:47:10;10.00;99.90
18163;DHT22;9206;50.994;4.538;2023-05-24T23:50:04;9.90;99.90
18163;DHT22;9206;50.994;4.538;2023-05-24T23:53:03;9.80;99.90
18163;DHT22;9206;50.994;4.538;2023-05-24T23:59:37;9.80;99.90
